Seitenverwaltung

Live am Platz

Die Bilder unserer Webcams werden alle 5 Minuten aktualisiert.

Sonnenaufgang:

03:31 UTC / 05:31 Lokal

Sonnenuntergang:

19:25 UTC / 21:25 Lokal

METAR (06.07.2020 09:20 UTC):

EDNY 061020Z 33006KT 260V020 9999 FEW025 OVC029 19/14 Q1017
MVFR

TAF (06.07.2020 04:00 UTC):

TAF EDNY 060500Z 0606/0706 22007KT 9999 SCT030 BECMG 0607/0609 33007KT BECMG 0609/0611 24007KT BECMG 0617/0619 VRB03KT

Alle Angaben unverbindlich und ohne Gewähr. Zeiten genähert.

Für den Verkehrslandeplatz Konstanz werden keine offiziellen Wetterinformationen ausgegeben. Daher werden zur Orientierung Daten des nahegelegenen Flughafens Friedrichshafen dargestellt.